Time;durP1;ratioP1;P1;durP2;ratioP2;P2;SDS_P1;SDS_P2;PMS_P1;PMS_P2;Temp;Humidity;BMP_temperature;BMP_pressure;BME280_temperature;BME280_humidity;BME280_pressure;Samples;Min_cycle;Max_cycle;Signal;HPM_P1;HPM_P2
2022/02/19 00:02:12;;;;;;;49.20;22.32;;;;;;;-1.62;100.00;99463.77;1712846;82;21083;-69
2022/02/19 00:07:06;;;;;;;52.47;22.90;;;;;;;-1.66;100.00;99449.56;1796592;79;22667;-69
2022/02/19 00:09:34;;;;;;;51.40;23.00;;;;;;;-1.74;100.00;99452.14;1756454;81;21076;-68
2022/02/19 00:12:01;;;;;;;54.48;22.93;;;;;;;-1.76;100.00;99456.44;1756411;81;21748;-68
2022/02/19 00:14:27;;;;;;;52.20;25.05;;;;;;;-1.79;100.00;99461.16;1756369;81;21479;-68
2022/02/19 00:16:54;;;;;;;49.18;23.00;;;;;;;-1.81;100.00;99460.73;1754353;81;21048;-68
2022/02/19 00:19:21;;;;;;;55.15;23.35;;;;;;;-1.86;100.00;99459.84;1748159;82;21034;-68
2022/02/19 00:21:47;;;;;;;47.35;20.27;;;;;;;-1.90;100.00;99459.84;1748087;82;21048;-68
2022/02/19 00:24:14;;;;;;;48.48;20.25;;;;;;;-1.92;100.00;99455.09;1747966;82;21109;-69
2022/02/19 00:26:40;;;;;;;42.73;20.92;;;;;;;-1.94;100.00;99467.13;1748155;82;21014;-69
2022/02/19 00:29:07;;;;;;;53.70;23.15;;;;;;;-1.90;100.00;99467.58;1747934;82;21057;-69
2022/02/19 00:31:34;;;;;;;38.40;17.90;;;;;;;-1.92;100.00;99462.84;1748026;82;21054;-68
2022/02/19 00:34:01;;;;;;;54.03;23.42;;;;;;;-1.94;100.00;99452.94;1718428;82;21034;-68
2022/02/19 00:36:28;;;;;;;54.38;22.25;;;;;;;-1.96;100.00;99449.48;1747898;82;21121;-67
2022/02/19 00:38:54;;;;;;;48.58;21.77;;;;;;;-1.97;100.00;99441.77;1747798;81;21026;-68
2022/02/19 00:41:21;;;;;;;44.67;19.83;;;;;;;-1.95;100.00;99438.33;1747968;82;21033;-68
2022/02/19 00:43:50;;;;;;;43.02;19.35;;;;;;;-1.94;100.00;99434.88;1747833;82;21576;-68
2022/02/19 00:46:16;;;;;;;43.98;20.68;;;;;;;-1.91;100.00;99436.19;1747855;82;21073;-68
2022/02/19 00:48:43;;;;;;;44.88;20.48;;;;;;;-1.88;100.00;99428.03;1747906;81;21779;-68
2022/02/19 00:51:10;;;;;;;51.13;20.08;;;;;;;-1.86;100.00;99415.55;1747935;82;21021;-68
2022/02/19 00:53:37;;;;;;;39.25;18.25;;;;;;;-1.81;100.00;99409.11;1747801;82;21037;-68
2022/02/19 00:56:06;;;;;;;42.55;17.35;;;;;;;-1.75;100.00;99399.66;1748044;82;21038;-68
2022/02/19 00:58:33;;;;;;;34.53;14.00;;;;;;;-1.70;100.00;99395.79;1747911;82;21072;-67
2022/02/19 01:00:59;;;;;;;37.15;17.17;;;;;;;-1.61;100.00;99390.63;1747973;82;21127;-68
2022/02/19 01:03:43;;;;;;;36.10;16.30;;;;;;;-1.54;100.00;99388.47;1746093;82;21061;-68
2022/02/19 01:06:09;;;;;;;38.70;15.80;;;;;;;-1.47;100.00;99385.47;1741338;81;21049;-67
2022/02/19 01:08:37;;;;;;;35.10;16.57;;;;;;;-1.42;100.00;99381.59;1734702;82;21054;-69
2022/02/19 01:11:04;;;;;;;38.13;18.67;;;;;;;-1.40;100.00;99383.71;1734824;81;21128;-68
2022/02/19 01:13:33;;;;;;;44.35;20.55;;;;;;;-1.37;100.00;99377.27;1734680;82;21179;-68
2022/02/19 01:15:59;;;;;;;54.30;22.10;;;;;;;-1.37;100.00;99366.94;1734834;82;21082;-68
2022/02/19 01:18:27;;;;;;;40.15;19.70;;;;;;;-1.34;100.00;99361.76;1734268;82;21046;-68
2022/02/19 01:20:53;;;;;;;36.48;16.17;;;;;;;-1.34;100.00;99365.20;1734241;82;21585;-68
2022/02/19 01:23:20;;;;;;;42.75;17.95;;;;;;;-1.33;100.00;99363.50;1734405;82;21037;-68
2022/02/19 01:25:47;;;;;;;36.40;17.35;;;;;;;-1.35;100.00;99363.48;1734214;82;21120;-67
2022/02/19 01:28:13;;;;;;;38.17;15.78;;;;;;;-1.36;100.00;99373.81;1734134;82;21542;-66
2022/02/19 01:30:41;;;;;;;37.15;14.80;;;;;;;-1.38;100.00;99351.88;1734509;82;21344;-69
2022/02/19 01:33:08;;;;;;;27.00;13.13;;;;;;;-1.40;100.00;99359.17;1734425;82;21061;-68
2022/02/19 01:35:34;;;;;;;32.63;13.58;;;;;;;-1.43;100.00;99352.73;1713320;82;21062;-68
2022/02/19 01:38:02;;;;;;;26.75;12.25;;;;;;;-1.45;100.00;99349.28;1734432;82;21492;-68
2022/02/19 01:40:30;;;;;;;22.67;11.73;;;;;;;-1.46;100.00;99343.70;1733840;82;21002;-68
2022/02/19 01:42:57;;;;;;;30.77;12.95;;;;;;;-1.48;100.00;99339.38;1712063;82;21066;-68
2022/02/19 01:45:25;;;;;;;27.20;12.75;;;;;;;-1.49;100.00;99340.26;1733453;81;21003;-68
2022/02/19 01:47:53;;;;;;;26.48;12.20;;;;;;;-1.50;100.00;99343.69;1734263;82;21436;-68
2022/02/19 01:50:21;;;;;;;27.32;12.35;;;;;;;-1.52;100.00;99338.98;1734191;82;21114;-68
2022/02/19 01:52:48;;;;;;;29.15;12.40;;;;;;;-1.52;100.00;99329.06;1734258;82;21026;-68
2022/02/19 01:55:20;;;;;;;27.52;13.13;;;;;;;-1.53;100.00;99328.20;1704158;83;21042;-68
2022/02/19 01:57:51;;;;;;;27.02;12.80;;;;;;;-1.56;100.00;99325.64;1693038;84;21554;-67
2022/02/19 02:00:36;;;;;;;27.48;10.50;;;;;;;-1.55;100.00;99319.59;1704661;83;21128;-69
2022/02/19 02:03:21;;;;;;;26.90;13.20;;;;;;;-1.53;100.00;99330.79;1704504;84;21181;-68
2022/02/19 02:05:50;;;;;;;27.62;12.15;;;;;;;-1.53;100.00;99333.38;1704185;83;21097;-68
2022/02/19 02:08:16;;;;;;;27.27;11.57;;;;;;;-1.49;100.00;99318.31;1704752;84;21614;-68
2022/02/19 02:10:44;;;;;;;34.92;12.23;;;;;;;-1.48;100.00;99325.18;1704998;83;21065;-67
2022/02/19 02:13:14;;;;;;;23.98;11.60;;;;;;;-1.47;100.00;99319.61;1704413;84;21586;-67
2022/02/19 02:15:40;;;;;;;25.27;11.57;;;;;;;-1.42;100.00;99314.44;1683652;84;21190;-68
2022/02/19 02:18:11;;;;;;;24.02;12.03;;;;;;;-1.38;100.00;99312.25;1704024;83;21049;-70
2022/02/19 02:20:40;;;;;;;28.07;11.18;;;;;;;-1.36;100.00;99314.41;1704891;84;21034;-68
2022/02/19 02:23:08;;;;;;;30.12;10.25;;;;;;;-1.34;100.00;99316.12;1704674;84;20986;-68
2022/02/19 02:25:35;;;;;;;29.07;11.78;;;;;;;-1.31;100.00;99315.28;1704822;84;21605;-68
2022/02/19 02:28:09;;;;;;;28.30;11.18;;;;;;;-1.29;100.00;99330.31;1704569;84;21188;-68
2022/02/19 02:30:33;;;;;;;32.90;12.43;;;;;;;-1.27;100.00;99320.84;1684172;84;21061;-68
2022/02/19 02:33:07;;;;;;;28.55;11.43;;;;;;;-1.22;100.00;99317.84;1704202;83;21094;-67
2022/02/19 02:35:35;;;;;;;25.97;11.20;;;;;;;-1.15;100.00;99319.55;1684796;84;22337;-69
2022/02/19 02:38:03;;;;;;;17.82;9.70;;;;;;;-1.06;100.00;99325.09;1704813;84;21050;-68
2022/02/19 02:40:31;;;;;;;23.90;11.03;;;;;;;-0.97;100.00;99329.38;1704944;84;21153;-67
2022/02/19 02:42:59;;;;;;;24.25;11.53;;;;;;;-0.87;100.00;99320.30;1704713;84;21018;-67
2022/02/19 02:45:26;;;;;;;28.12;11.08;;;;;;;-0.76;100.00;99320.68;1704859;84;21044;-66
2022/02/19 02:47:52;;;;;;;23.92;11.05;;;;;;;-0.67;100.00;99325.41;1704898;84;21494;-69
2022/02/19 02:50:19;;;;;;;27.07;10.80;;;;;;;-0.61;100.00;99324.50;1704775;84;21086;-68
2022/02/19 02:52:46;;;;;;;22.87;8.85;;;;;;;-0.51;100.00;99325.31;1704642;84;21138;-68
2022/02/19 02:55:12;;;;;;;27.37;10.82;;;;;;;-0.45;100.00;99320.12;1733615;82;21034;-67
2022/02/19 02:57:39;;;;;;;26.82;11.08;;;;;;;-0.38;100.00;99313.19;1734542;82;22237;-68
2022/02/19 03:00:09;;;;;;;18.95;7.95;;;;;;;-0.33;100.00;99299.78;1734178;82;21109;-68
2022/02/19 03:02:39;;;;;;;22.52;9.00;;;;;;;-0.28;100.00;99295.42;1713893;82;21104;-68
2022/02/19 03:05:09;;;;;;;20.30;8.58;;;;;;;-0.25;100.00;99288.52;1734148;82;21126;-68
2022/02/19 03:07:36;;;;;;;24.32;9.65;;;;;;;-0.19;100.00;99291.92;1740640;81;21537;-69
2022/02/19 03:10:07;;;;;;;21.33;9.43;;;;;;;-0.15;100.00;99286.72;1742440;82;21089;-69
2022/02/19 03:12:36;;;;;;;21.85;8.78;;;;;;;-0.12;100.00;99283.24;1742657;82;21550;-68
2022/02/19 03:15:05;;;;;;;21.17;9.73;;;;;;;-0.06;100.00;99288.39;1742291;82;21266;-69
2022/02/19 03:17:38;;;;;;;23.25;8.93;;;;;;;-0.04;100.00;99281.47;1713022;82;21132;-67
2022/02/19 03:20:08;;;;;;;24.72;9.00;;;;;;;-0.02;100.00;99278.44;1742279;82;21023;-68
2022/02/19 03:22:36;;;;;;;23.02;9.30;;;;;;;0.02;100.00;99261.98;1742466;82;21037;-68
2022/02/19 03:25:05;;;;;;;18.95;8.45;;;;;;;0.05;100.00;99261.98;1742617;82;21010;-69
2022/02/19 03:27:32;;;;;;;20.43;8.35;;;;;;;0.09;100.00;99258.50;1742176;82;21041;-68
2022/02/19 03:30:01;;;;;;;20.40;8.65;;;;;;;0.13;100.00;99256.28;1741639;82;21154;-68
2022/02/19 03:32:29;;;;;;;15.48;7.00;;;;;;;0.16;100.00;99244.63;1742283;82;21058;-69
2022/02/19 03:34:56;;;;;;;18.02;7.20;;;;;;;0.23;100.00;99234.19;1742282;82;21039;-68
2022/02/19 03:37:22;;;;;;;18.32;7.55;;;;;;;0.28;100.00;99241.51;1712909;82;21061;-68
2022/02/19 03:39:49;;;;;;;15.32;7.40;;;;;;;0.35;100.00;99233.66;1742537;82;21101;-68
2022/02/19 03:42:17;;;;;;;19.87;8.73;;;;;;;0.38;100.00;99229.72;1742444;82;21151;-69
2022/02/19 03:44:43;;;;;;;17.57;6.22;;;;;;;0.42;100.00;99227.97;1742234;82;21013;-69
2022/02/19 03:47:11;;;;;;;18.40;7.28;;;;;;;0.45;100.00;99225.78;1741588;82;21049;-68
2022/02/19 03:49:43;;;;;;;12.13;4.70;;;;;;;0.49;100.00;99219.27;1740514;82;20975;-67
2022/02/19 03:52:09;;;;;;;22.55;8.20;;;;;;;0.53;100.00;99225.25;1742105;82;21618;-67
2022/02/19 03:54:38;;;;;;;16.93;6.75;;;;;;;0.56;100.00;99220.05;1686286;83;21146;-68
2022/02/19 03:57:05;;;;;;;18.60;6.22;;;;;;;0.58;100.00;99221.75;1697126;84;21076;-68
2022/02/19 03:59:33;;;;;;;17.92;7.45;;;;;;;0.60;100.00;99209.64;1697567;83;21051;-68
2022/02/19 04:02:00;;;;;;;17.25;6.45;;;;;;;0.63;100.00;99207.00;1707280;82;21561;-67
2022/02/19 04:04:27;;;;;;;16.67;6.03;;;;;;;0.68;100.00;99202.21;1742562;82;21045;-68
2022/02/19 04:06:54;;;;;;;12.73;5.20;;;;;;;0.73;100.00;99209.48;1739670;81;21951;-68
2022/02/19 04:09:22;;;;;;;16.82;6.25;;;;;;;0.75;100.00;99206.00;1731519;82;21030;-68
2022/02/19 04:11:51;;;;;;;17.65;5.97;;;;;;;0.81;100.00;99198.16;1734318;82;21054;-68
2022/02/19 04:14:18;;;;;;;14.20;5.17;;;;;;;0.85;100.00;99193.77;1734209;82;21554;-68
2022/02/19 04:16:48;;;;;;;;;;;;;;;0.90;100.00;99192.42;1736673;82;21086;-68
2022/02/19 04:19:16;;;;;;;12.60;5.37;;;;;;;0.94;100.00;99192.80;1734221;81;21026;-68
2022/02/19 04:21:42;;;;;;;13.05;5.95;;;;;;;0.94;100.00;99189.77;1734075;82;21586;-66
2022/02/19 04:24:11;;;;;;;10.50;4.62;;;;;;;1.02;100.00;99193.58;1734093;81;21050;-68
2022/02/19 04:26:38;;;;;;;13.62;5.78;;;;;;;1.07;100.00;99195.66;1734601;82;21038;-67
2022/02/19 04:29:05;;;;;;;12.55;5.55;;;;;;;1.13;100.00;99181.74;1734121;82;21010;-68
2022/02/19 04:31:34;;;;;;;15.45;5.08;;;;;;;1.15;100.00;99184.77;1734145;81;21754;-68
2022/02/19 04:34:02;;;;;;;10.63;5.60;;;;;;;1.18;100.00;99178.67;1733370;82;21093;-68
2022/02/19 04:36:29;;;;;;;17.23;6.78;;;;;;;1.24;100.00;99177.27;1734309;82;21194;-69
2022/02/19 04:38:55;;;;;;;15.70;6.17;;;;;;;1.28;100.00;99177.64;1734138;82;21045;-67
2022/02/19 04:41:24;;;;;;;19.17;5.73;;;;;;;1.31;100.00;99173.73;1733974;82;21042;-68
2022/02/19 04:43:50;;;;;;;13.25;6.10;;;;;;;1.34;100.00;99158.11;1734274;82;21071;-68
2022/02/19 04:46:17;;;;;;;29.82;5.92;;;;;;;1.39;100.00;99145.91;1734065;82;21002;-68
2022/02/19 04:48:43;;;;;;;11.55;4.30;;;;;;;1.42;100.00;99141.11;1734357;82;21058;-68
2022/02/19 04:51:09;;;;;;;10.70;4.33;;;;;;;1.51;99.62;99147.91;1734095;82;21026;-67
2022/02/19 04:53:38;;;;;;;16.20;5.65;;;;;;;1.56;98.90;99146.94;1734420;82;21026;-67
2022/02/19 04:56:05;;;;;;;13.25;5.95;;;;;;;1.60;98.85;99128.29;1734347;82;21447;-68
2022/02/19 04:58:32;;;;;;;14.45;5.67;;;;;;;1.66;99.30;99130.80;1734308;82;21069;-68
2022/02/19 05:00:59;;;;;;;18.32;5.17;;;;;;;1.65;97.86;99132.95;1734309;82;21057;-68
2022/02/19 05:03:43;;;;;;;12.70;4.12;;;;;;;1.68;98.84;99148.50;1734206;82;21061;-69
2022/02/19 05:06:21;;;;;;;10.28;4.42;;;;;;;1.69;96.79;99151.50;1733961;82;21418;-68
2022/02/19 05:08:49;;;;;;;11.38;4.33;;;;;;;1.72;96.80;99150.14;1732707;82;21357;-68
2022/02/19 05:11:16;;;;;;;14.47;5.28;;;;;;;1.75;96.24;99155.30;1734357;82;20999;-69
2022/02/19 05:13:46;;;;;;;11.85;4.22;;;;;;;1.78;96.02;99155.23;1734065;82;21058;-69
2022/02/19 05:16:12;;;;;;;13.90;3.87;;;;;;;1.79;95.48;99145.25;1734275;82;20998;-68
2022/02/19 05:18:41;;;;;;;16.85;4.80;;;;;;;1.80;95.53;99136.59;1733949;82;21429;-68
2022/02/19 05:21:09;;;;;;;12.20;4.65;;;;;;;1.79;95.58;99120.59;1734212;82;21505;-68
2022/02/19 05:23:37;;;;;;;14.38;4.83;;;;;;;1.81;95.17;99110.19;1734394;82;21019;-69
2022/02/19 05:26:04;;;;;;;15.72;5.08;;;;;;;1.81;95.40;99105.00;1734304;82;21046;-69
2022/02/19 05:28:31;;;;;;;13.72;5.30;;;;;;;1.84;94.89;99116.20;1713272;82;21027;-68
2022/02/19 05:30:58;;;;;;;11.38;4.45;;;;;;;1.83;93.86;99096.30;1734183;82;21114;-69
2022/02/19 05:33:26;;;;;;;10.55;4.22;;;;;;;1.93;93.41;99103.47;1672534;82;21314;-69
2022/02/19 05:35:53;;;;;;;16.00;4.95;;;;;;;1.97;93.39;99108.17;1734264;82;20967;-69
2022/02/19 05:38:19;;;;;;;21.33;3.70;;;;;;;2.00;93.14;99095.13;1713495;82;21065;-69
2022/02/19 05:40:49;;;;;;;12.18;3.87;;;;;;;2.01;92.96;99096.85;1734225;82;21046;-69
2022/02/19 05:43:16;;;;;;;6.25;3.50;;;;;;;2.03;92.14;99099.83;1734446;82;21527;-69
2022/02/19 05:45:46;;;;;;;9.28;3.52;;;;;;;2.06;91.53;99097.61;1734039;82;21511;-69
2022/02/19 05:48:14;;;;;;;5.47;3.08;;;;;;;2.10;90.89;99087.59;1734498;82;21519;-69
2022/02/19 05:50:50;;;;;;;14.87;4.03;;;;;;;2.16;90.61;99081.41;1732173;82;21037;-68
2022/02/19 05:53:27;;;;;;;8.00;2.95;;;;;;;2.20;90.75;99090.41;1709749;82;21054;-70
2022/02/19 05:55:54;;;;;;;10.98;3.12;;;;;;;2.23;90.25;99104.66;1733927;82;21082;-69
2022/02/19 05:58:21;;;;;;;8.48;3.87;;;;;;;2.26;89.80;99096.78;1734084;82;21593;-69
2022/02/19 06:00:50;;;;;;;10.85;3.98;;;;;;;2.29;89.25;99108.41;1732457;82;21042;-69
2022/02/19 06:03:16;;;;;;;15.05;5.00;;;;;;;2.34;89.34;99115.27;1733914;82;21101;-69
2022/02/19 06:05:44;;;;;;;9.75;3.90;;;;;;;2.36;88.52;99110.89;1734083;82;21143;-67
2022/02/19 06:08:12;;;;;;;14.00;4.92;;;;;;;2.39;88.69;99121.22;1742594;82;21112;-69
2022/02/19 06:10:39;;;;;;;14.70;5.35;;;;;;;2.38;89.46;99111.72;1748287;82;21131;-69
2022/02/19 06:13:07;;;;;;;9.03;4.60;;;;;;;2.40;90.67;99122.95;1720686;82;21506;-68
2022/02/19 06:15:36;;;;;;;14.75;5.75;;;;;;;2.40;90.67;99122.95;1748348;81;21637;-69
2022/02/19 06:18:10;;;;;;;12.70;4.08;;;;;;;2.40;92.49;99135.94;1720448;82;21101;-69
2022/02/19 06:20:39;;;;;;;10.32;5.12;;;;;;;2.35;95.54;99144.24;1748437;81;21065;-69
2022/02/19 06:23:07;;;;;;;9.45;3.52;;;;;;;2.29;97.75;99156.92;1747054;82;21995;-69
2022/02/19 06:25:35;;;;;;;16.10;4.45;;;;;;;2.17;100.00;99145.02;1748137;81;21064;-69
2022/02/19 06:28:02;;;;;;;12.45;5.67;;;;;;;2.03;100.00;99156.12;1748321;81;22152;-68
2022/02/19 06:30:30;;;;;;;9.63;5.10;;;;;;;1.91;100.00;99155.02;1748151;81;21585;-68
2022/02/19 06:32:58;;;;;;;9.48;4.17;;;;;;;1.84;100.00;99149.95;1747888;81;21065;-68
2022/02/19 06:35:26;;;;;;;10.80;4.25;;;;;;;1.67;100.00;99148.06;1748338;81;21506;-69
2022/02/19 06:37:54;;;;;;;14.38;6.22;;;;;;;1.54;100.00;99149.14;1747286;82;21519;-68
2022/02/19 06:40:22;;;;;;;14.90;6.95;;;;;;;1.41;100.00;99132.48;1748192;82;21054;-68
2022/02/19 06:42:48;;;;;;;16.00;8.23;;;;;;;1.28;100.00;99130.95;1720641;82;21109;-68
2022/02/19 06:45:26;;;;;;;24.60;8.83;;;;;;;1.17;100.00;99125.07;1748336;82;21045;-68
2022/02/19 06:47:54;;;;;;;18.82;7.78;;;;;;;1.14;100.00;99108.27;1748035;82;21131;-68
2022/02/19 06:50:22;;;;;;;21.37;6.22;;;;;;;1.11;100.00;99103.14;1748120;82;21491;-68
2022/02/19 06:52:49;;;;;;;14.90;6.55;;;;;;;1.10;100.00;99080.66;1748518;82;21072;-69
2022/02/19 06:55:17;;;;;;;10.65;5.00;;;;;;;1.10;100.00;99068.55;1718416;82;21053;-68
2022/02/19 06:57:49;;;;;;;12.40;5.22;;;;;;;1.15;100.00;99067.18;1718939;83;21124;-69
2022/02/19 07:00:17;;;;;;;15.63;5.97;;;;;;;1.19;100.00;99079.22;1718684;83;21149;-69
2022/02/19 07:02:46;;;;;;;14.65;5.17;;;;;;;1.24;100.00;99065.73;1717987;83;21061;-68
2022/02/19 07:05:14;;;;;;;16.20;5.85;;;;;;;1.28;100.00;99050.55;1718391;83;21014;-69
2022/02/19 07:07:50;;;;;;;13.68;6.08;;;;;;;1.33;100.00;99058.25;1713770;83;21030;-69
2022/02/19 07:10:17;;;;;;;10.58;3.67;;;;;;;1.39;100.00;99026.58;1704890;84;21034;-69
2022/02/19 07:12:44;;;;;;;16.55;5.53;;;;;;;1.46;100.00;99032.06;1704817;84;21180;-69
2022/02/19 07:15:12;;;;;;;10.58;4.10;;;;;;;1.58;100.00;99019.76;1704950;83;21097;-69
2022/02/19 07:17:51;;;;;;;11.08;4.42;;;;;;;1.70;100.00;99024.72;1702590;83;21074;-69
2022/02/19 07:20:22;;;;;;;10.53;4.22;;;;;;;1.83;100.00;98996.80;1705051;84;21082;-69
2022/02/19 07:22:49;;;;;;;8.68;3.62;;;;;;;1.94;100.00;99010.87;1704982;84;21073;-69
2022/02/19 07:25:19;;;;;;;13.28;3.67;;;;;;;2.04;100.00;99015.83;1704939;84;22551;-69
2022/02/19 07:27:47;;;;;;;9.58;3.30;;;;;;;2.20;97.37;99011.17;1704906;84;21542;-68
2022/02/19 07:30:16;;;;;;;8.58;3.30;;;;;;;2.33;95.82;98994.05;1704961;84;21045;-68
2022/02/19 07:32:44;;;;;;;10.30;3.30;;;;;;;2.40;94.82;98974.84;1704934;84;21592;-68
2022/02/19 07:35:13;;;;;;;10.50;3.60;;;;;;;2.46;94.37;98964.28;1703676;84;21699;-68
2022/02/19 07:37:39;;;;;;;10.13;3.60;;;;;;;2.51;92.48;98955.51;1705148;84;21159;-68
2022/02/19 07:40:07;;;;;;;10.45;3.75;;;;;;;2.59;92.26;98959.22;1704690;84;21041;-69
2022/02/19 07:42:35;;;;;;;6.33;2.95;;;;;;;2.66;90.75;98971.17;1704949;84;21082;-68
2022/02/19 07:45:20;;;;;;;8.95;3.87;;;;;;;2.73;88.25;98985.73;1704851;84;21581;-70
2022/02/19 07:48:06;;;;;;;8.63;3.62;;;;;;;2.79;88.53;98972.20;1704821;84;21049;-70
2022/02/19 07:59:24;;;;;;;10.28;4.53;;;;;;;2.88;88.01;98966.33;1734057;82;21051;-69
2022/02/19 08:01:51;;;;;;;6.25;2.85;;;;;;;2.91;87.20;98955.00;1734061;82;21042;-69
2022/02/19 08:04:19;;;;;;;11.78;3.77;;;;;;;2.91;87.20;98955.00;1733997;82;21096;-69
2022/02/19 08:06:46;;;;;;;10.55;4.00;;;;;;;2.93;86.97;98972.72;1733996;82;21575;-69
2022/02/19 08:09:14;;;;;;;9.58;3.60;;;;;;;3.05;85.53;98981.52;1744571;82;21003;-68
2022/02/19 08:11:41;;;;;;;11.18;4.28;;;;;;;3.05;85.53;98981.52;1748369;81;21053;-70
2022/02/19 08:14:09;;;;;;;12.43;3.87;;;;;;;3.10;85.29;99001.75;1748225;81;20998;-69
2022/02/19 08:16:36;;;;;;;8.35;3.83;;;;;;;3.10;85.29;99001.75;1748398;82;21528;-69
2022/02/19 08:19:03;;;;;;;11.30;4.17;;;;;;;3.12;86.08;99015.58;1748093;82;21029;-69
2022/02/19 08:21:30;;;;;;;10.08;3.85;;;;;;;3.13;85.92;99009.50;1748243;82;21041;-69
2022/02/19 08:23:57;;;;;;;14.10;4.83;;;;;;;3.15;86.35;99022.45;1748054;82;21037;-68
2022/02/19 08:26:24;;;;;;;12.47;5.12;;;;;;;3.19;86.12;99008.48;1748125;82;21318;-68
2022/02/19 08:28:51;;;;;;;9.25;4.72;;;;;;;3.19;86.50;99005.03;1748609;82;21183;-69
2022/02/19 08:31:18;;;;;;;10.70;5.65;;;;;;;3.24;85.89;99014.88;1748087;82;21045;-69
2022/02/19 08:33:44;;;;;;;13.03;6.03;;;;;;;3.21;86.11;98975.94;1748506;82;21120;-69
2022/02/19 08:36:11;;;;;;;11.63;5.45;;;;;;;3.23;86.61;98988.45;1748187;82;20994;-69
2022/02/19 08:38:38;;;;;;;10.10;4.10;;;;;;;3.25;87.99;99007.49;1748542;81;21126;-69
2022/02/19 08:41:04;;;;;;;12.10;5.28;;;;;;;3.25;87.13;99003.13;1748090;82;21065;-69
2022/02/19 08:43:32;;;;;;;12.73;5.20;;;;;;;3.29;87.43;99002.59;1748370;81;21045;-68
2022/02/19 08:45:59;;;;;;;10.80;4.12;;;;;;;3.31;87.63;98989.09;1748449;81;21435;-69
2022/02/19 08:48:28;;;;;;;12.28;4.95;;;;;;;3.35;87.01;98985.53;1748186;81;21026;-69
2022/02/19 08:50:55;;;;;;;12.37;5.53;;;;;;;3.36;86.77;98971.64;1748345;81;21007;-69
2022/02/19 08:53:23;;;;;;;15.60;6.20;;;;;;;3.40;86.40;98964.14;1741815;81;21109;-69
2022/02/19 08:55:50;;;;;;;17.05;6.67;;;;;;;3.43;86.78;98958.88;1718489;83;21613;-69
2022/02/19 08:58:16;;;;;;;15.00;6.55;;;;;;;3.46;86.67;98970.48;1718477;83;21085;-69
2022/02/19 09:00:43;;;;;;;15.40;6.15;;;;;;;3.46;86.67;98970.48;1718572;83;21158;-69
2022/02/19 09:03:19;;;;;;;15.25;7.17;;;;;;;3.50;86.89;98964.77;1718808;83;21585;-68
2022/02/19 09:05:47;;;;;;;17.70;6.47;;;;;;;3.53;86.74;98964.22;1718399;83;21090;-69
2022/02/19 09:08:14;;;;;;;15.50;7.03;;;;;;;3.56;85.43;98968.03;1718166;83;21096;-68
2022/02/19 09:10:40;;;;;;;21.25;7.65;;;;;;;3.60;86.09;98945.84;1721688;83;21049;-70
2022/02/19 09:13:07;;;;;;;22.22;8.65;;;;;;;3.63;86.06;98967.42;1723108;80;21009;-68
2022/02/19 09:15:34;;;;;;;15.90;7.62;;;;;;;3.64;85.45;98938.36;1723360;83;21026;-68
2022/02/19 09:18:01;;;;;;;21.57;7.80;;;;;;;3.66;86.63;98966.48;1722830;80;21110;-69
2022/02/19 09:20:28;;;;;;;20.43;9.88;;;;;;;3.67;85.98;98957.79;1723164;82;21039;-69
2022/02/19 09:22:55;;;;;;;18.70;7.22;;;;;;;3.66;86.03;98945.66;1722716;83;20991;-68
2022/02/19 09:25:22;;;;;;;11.57;4.85;;;;;;;3.65;84.69;98972.59;1720397;83;21053;-69
2022/02/19 09:27:49;;;;;;;17.73;6.28;;;;;;;3.66;84.92;98972.98;1719301;83;21081;-69
2022/02/19 09:30:15;;;;;;;15.10;5.92;;;;;;;3.66;85.23;98977.77;1721617;82;21092;-69
2022/02/19 09:32:42;;;;;;;13.90;6.25;;;;;;;3.68;85.20;98985.52;1748766;82;21561;-68
2022/02/19 09:35:08;;;;;;;14.33;6.60;;;;;;;3.69;85.79;98971.63;1748939;82;21050;-69
2022/02/19 09:37:35;;;;;;;17.87;7.40;;;;;;;3.68;85.57;98977.28;1721289;82;21297;-69
2022/02/19 09:40:04;;;;;;;17.55;6.47;;;;;;;3.66;85.04;98972.98;1748680;82;21621;-69
2022/02/19 09:42:31;;;;;;;19.07;7.10;;;;;;;3.67;85.89;98972.95;1749034;82;21132;-69
2022/02/19 09:44:59;;;;;;;15.48;6.35;;;;;;;3.71;85.68;98982.86;1748449;82;20987;-68
2022/02/19 09:47:28;;;;;;;13.62;5.25;;;;;;;3.73;85.81;98984.97;1748940;82;21565;-68
2022/02/19 09:49:55;;;;;;;17.15;7.58;;;;;;;3.73;84.92;98960.23;1749049;82;21096;-68
2022/02/19 09:52:23;;;;;;;21.48;6.53;;;;;;;3.76;85.87;98958.84;1748899;82;21045;-69
2022/02/19 09:54:54;;;;;;;15.08;6.10;;;;;;;3.77;86.10;98927.98;1748960;82;21491;-68
2022/02/19 09:57:21;;;;;;;11.12;3.77;;;;;;;3.79;86.04;98919.67;1721365;82;21058;-69
2022/02/19 09:59:48;;;;;;;14.68;6.30;;;;;;;3.81;84.90;98915.73;1748178;82;21588;-69
2022/02/19 10:02:14;;;;;;;16.67;6.87;;;;;;;3.86;85.45;98860.00;1748673;82;21021;-68
2022/02/19 10:04:44;;;;;;;11.05;5.05;;;;;;;3.94;85.73;98894.49;1748908;82;21002;-69
2022/02/19 10:07:18;;;;;;;16.95;6.45;;;;;;;3.98;84.53;98905.23;1748577;82;21489;-68
2022/02/19 10:09:49;;;;;;;13.75;5.85;;;;;;;3.99;85.26;98895.20;1747796;81;21143;-68
2022/02/19 10:12:17;;;;;;;16.50;7.10;;;;;;;3.99;84.44;98856.13;1748398;82;21005;-69
2022/02/19 10:14:45;;;;;;;18.05;6.92;;;;;;;4.05;86.67;98893.30;1748027;82;21091;-68
2022/02/19 10:17:18;;;;;;;17.17;5.85;;;;;;;4.07;85.14;98911.05;1748178;82;21085;-68
2022/02/19 10:19:55;;;;;;;15.45;6.47;;;;;;;4.11;85.89;98905.70;1748091;82;21970;-68
2022/02/19 10:22:28;;;;;;;14.78;6.60;;;;;;;4.11;86.17;98916.13;1748074;82;21307;-69
2022/02/19 10:24:57;;;;;;;16.52;6.58;;;;;;;4.10;85.34;98930.52;1747500;82;21640;-68
2022/02/19 10:27:54;;;;;;;16.20;5.78;;;;;;;4.11;86.35;98942.64;1748241;82;21020;-68
2022/02/19 10:30:23;;;;;;;13.48;6.37;;;;;;;4.09;86.21;98936.16;1748208;82;21537;-69
2022/02/19 10:32:53;;;;;;;16.60;6.85;;;;;;;4.11;85.85;98936.13;1748156;82;21131;-69
2022/02/19 10:35:29;;;;;;;16.80;7.30;;;;;;;4.15;86.35;98927.32;1748495;82;21049;-69
2022/02/19 10:37:55;;;;;;;17.57;6.08;;;;;;;4.27;85.86;98941.27;1722309;82;21025;-69
2022/02/19 10:40:36;;;;;;;16.42;5.78;;;;;;;4.46;85.39;98936.34;1748172;82;21566;-69
2022/02/19 10:43:05;;;;;;;12.63;4.80;;;;;;;4.63;84.78;98935.83;1748762;82;21518;-69
2022/02/19 10:45:33;;;;;;;16.07;5.87;;;;;;;4.76;83.49;98942.36;1748341;82;21091;-69
2022/02/19 10:48:18;;;;;;;13.22;6.25;;;;;;;4.88;83.77;98947.63;1747961;82;21022;-69
2022/02/19 10:50:47;;;;;;;14.40;4.90;;;;;;;4.97;84.28;98943.41;1748006;82;21478;-69
2022/02/19 10:53:26;;;;;;;17.70;5.97;;;;;;;5.07;83.21;98951.78;1747937;82;21069;-69
2022/02/19 10:55:54;;;;;;;14.83;7.05;;;;;;;5.13;82.84;98947.67;1748316;81;21044;-69
2022/02/19 10:58:21;;;;;;;15.78;6.37;;;;;;;5.11;82.60;98965.13;1748125;81;21077;-70
2022/02/19 11:00:47;;;;;;;12.05;5.58;;;;;;;5.14;82.76;98971.55;1748136;82;21029;-69
2022/02/19 11:03:16;;;;;;;19.62;7.30;;;;;;;5.18;82.69;98943.14;1748344;82;21049;-69
2022/02/19 11:05:43;;;;;;;13.40;6.58;;;;;;;5.19;82.68;98940.91;1748434;82;21589;-70
2022/02/19 11:08:10;;;;;;;20.27;7.47;;;;;;;5.24;82.88;98949.47;1748371;82;21088;-69
2022/02/19 11:10:37;;;;;;;16.70;7.03;;;;;;;5.28;83.68;98946.73;1748088;81;21058;-69
2022/02/19 11:13:04;;;;;;;13.20;5.25;;;;;;;5.31;83.31;98955.77;1748169;82;21013;-69
2022/02/19 11:15:32;;;;;;;17.57;7.15;;;;;;;5.22;82.61;98946.05;1748062;82;21096;-68
2022/02/19 11:17:59;;;;;;;14.63;6.42;;;;;;;5.19;83.53;98940.91;1748230;82;21068;-68
2022/02/19 11:20:26;;;;;;;16.35;7.03;;;;;;;5.14;83.14;98935.00;1748329;82;21498;-69
2022/02/19 11:22:54;;;;;;;16.55;6.80;;;;;;;5.11;84.33;98924.69;1748113;82;21796;-68
2022/02/19 11:25:23;;;;;;;17.02;7.12;;;;;;;5.14;83.64;98935.00;1747936;82;21577;-69
2022/02/19 11:28:09;;;;;;;11.80;5.47;;;;;;;5.18;84.31;98951.43;1748139;82;21014;-68
2022/02/19 11:30:54;;;;;;;12.93;5.60;;;;;;;5.20;84.00;98954.38;1748651;82;21621;-69
2022/02/19 11:33:20;;;;;;;18.42;6.42;;;;;;;5.19;83.75;98950.05;1748167;82;21538;-68
2022/02/19 11:35:46;;;;;;;22.05;7.87;;;;;;;5.23;83.92;98932.08;1748501;82;21042;-69
2022/02/19 11:38:32;;;;;;;12.40;6.00;;;;;;;5.24;84.07;98928.59;1720591;82;21006;-69
2022/02/19 11:41:02;;;;;;;17.82;5.72;;;;;;;5.26;83.85;98931.97;1748260;82;21069;-69
2022/02/19 11:43:39;;;;;;;14.20;6.28;;;;;;;5.29;83.91;98930.16;1748317;82;21081;-69
2022/02/19 11:46:17;;;;;;;18.90;8.75;;;;;;;5.31;84.50;98927.05;1747992;82;21041;-69